< < Back
Terminal Aerodrome Forecast


Current Version              Previous Versions:   1  2  3  4  5  6  7  8  9  

Terminal Aerodrome Forecast

682
FTUS42 KGSP 230423 AAA
TAFAND
TAF AMD
KAND 230423Z 2304/2324 05007KT 6SM -RADZ BR OVC006
      TEMPO 2306/2308 4SM -RADZ BR OVC005
     FM230800 06005KT 2SM -RADZ BR OVC004
     FM231300 07006KT 2SM -RADZ BR OVC004=

Latest METAR

533
SAUS70 KWBC 230500 RRF
MTRAND
METAR KAND 230456Z AUTO 06007KT 10SM OVC005 04/03 A2999 RMK AO2 RAE25
SLP157 P0001 T00440033 400720044


USA.gov is the U.S. government's official web portal to all federal, state and local government web resources and services.